Time;durP1;ratioP1;P1;durP2;ratioP2;P2;SDS_P1;SDS_P2;PMS_P1;PMS_P2;Temp;Humidity;BMP_temperature;BMP_pressure;BME280_temperature;BME280_humidity;BME280_pressure;Samples;Min_cycle;Max_cycle;Signal;HPM_P1;HPM_P2
2022/02/02 00:02:14;;;;;;;7.60;1.30;;;;;;;5.25;87.45;99899.36;107540;1282;71605;-76
2022/02/02 00:04:46;;;;;;;8.50;2.00;;;;;;;5.25;86.90;99909.88;107590;1281;74405;-76
2022/02/02 00:09:54;;;;;;;17.40;2.30;;;;;;;5.23;86.34;99897.61;107544;1282;61390;-77
2022/02/02 00:12:36;;;;;;;14.80;1.80;;;;;;;5.24;85.79;99898.10;107590;1281;74935;-77
2022/02/02 00:20:19;;;;;;;19.30;3.10;;;;;;;5.21;85.83;99906.94;107423;1283;62122;-78
2022/02/02 00:22:48;;;;;;;11.60;2.20;;;;;;;5.22;85.78;99906.15;107561;1282;61069;-77
2022/02/02 00:25:25;;;;;;;17.10;2.00;;;;;;;5.23;85.75;99911.16;107586;1281;76070;-78
2022/02/02 00:27:56;;;;;;;17.40;2.70;;;;;;;5.26;84.88;99925.75;107636;1280;71356;-77
2022/02/02 00:30:27;;;;;;;12.50;2.30;;;;;;;5.28;84.67;99936.70;107519;1282;74075;-77
2022/02/02 00:33:04;;;;;;;13.80;2.40;;;;;;;5.30;84.53;99950.91;107575;1281;63627;-76
2022/02/02 00:35:36;;;;;;;13.40;2.30;;;;;;;5.30;84.61;99921.27;107578;1282;61656;-77
2022/02/02 00:38:03;;;;;;;17.30;2.30;;;;;;;5.31;83.87;99942.23;107565;1281;76025;-77
2022/02/02 00:40:30;;;;;;;12.30;2.80;;;;;;;5.33;83.63;99937.17;107593;1280;58475;-77
2022/02/02 00:42:56;;;;;;;24.00;3.90;;;;;;;5.33;83.31;99925.34;107581;1280;73940;-76
2022/02/02 00:45:39;;;;;;;8.30;1.90;;;;;;;5.36;82.85;99939.86;107481;1282;62936;-77
2022/02/02 00:48:06;;;;;;;10.90;1.70;;;;;;;5.37;82.70;99936.51;107560;1282;59952;-76
2022/02/02 00:50:32;;;;;;;13.50;2.00;;;;;;;5.37;83.13;99948.11;107619;1281;61200;-77
2022/02/02 00:52:59;;;;;;;17.30;2.90;;;;;;;5.34;84.37;99932.48;107543;1282;59569;-78
2022/02/02 00:55:25;;;;;;;9.70;1.80;;;;;;;5.28;84.26;99941.40;107620;1281;59199;-76
2022/02/02 00:57:51;;;;;;;18.30;3.20;;;;;;;5.26;84.75;99929.08;107539;1281;59505;-77
2022/02/02 01:00:18;;;;;;;12.10;1.80;;;;;;;5.22;85.62;99935.66;107606;1281;59150;-76
2022/02/02 01:02:46;;;;;;;3.70;0.80;;;;;;;5.06;86.09;99955.48;107580;1281;59275;-77
2022/02/02 01:05:14;;;;;;;5.70;1.20;;;;;;;4.78;88.70;99976.00;107655;1281;71395;-75
2022/02/02 01:10:36;;;;;;;4.20;1.20;;;;;;;3.96;95.36;99977.63;107515;1282;61591;-76
2022/02/02 01:13:21;;;;;;;5.80;0.90;;;;;;;3.71;96.50;99972.80;107447;1281;61612;-77
2022/02/02 01:21:03;;;;;;;3.90;0.90;;;;;;;3.48;97.01;99939.87;107525;1282;74057;-76
2022/02/02 01:29:01;;;;;;;5.60;1.00;;;;;;;3.54;98.69;99956.03;107555;1282;76314;-76
2022/02/02 01:31:27;;;;;;;10.20;2.20;;;;;;;3.59;98.65;99971.98;107546;1282;72405;-76
2022/02/02 01:33:54;;;;;;;8.90;2.10;;;;;;;3.64;99.51;99960.30;107558;1280;74024;-75
2022/02/02 01:36:21;;;;;;;8.50;1.40;;;;;;;3.66;99.80;99955.70;107593;1281;61866;-77
2022/02/02 01:38:49;;;;;;;7.80;2.00;;;;;;;3.67;100.00;99965.73;107655;1281;61252;-76
2022/02/02 01:41:30;;;;;;;10.30;1.90;;;;;;;3.67;100.00;99975.41;107498;1282;75967;-75
2022/02/02 01:44:04;;;;;;;4.60;1.20;;;;;;;3.64;100.00;99988.39;107359;1281;72894;-76
2022/02/02 01:46:34;;;;;;;8.50;1.60;;;;;;;3.63;100.00;100010.19;107605;1281;73677;-77
2022/02/02 01:52:17;;;;;;;7.40;1.30;;;;;;;3.48;100.00;100005.55;107556;1282;59561;-76
2022/02/02 02:00:11;;;;;;;7.80;1.70;;;;;;;3.29;99.88;100000.23;107183;1282;74021;-77
2022/02/02 02:02:37;;;;;;;12.30;2.40;;;;;;;3.31;98.46;100007.90;107590;1281;61427;-75
2022/02/02 02:05:06;;;;;;;11.40;1.80;;;;;;;3.38;97.24;100036.27;107648;1281;59196;-78
2022/02/02 02:07:32;;;;;;;9.20;2.10;;;;;;;3.40;97.35;99989.50;107451;1282;75283;-76
2022/02/02 02:09:59;;;;;;;3.80;0.90;;;;;;;3.35;97.78;99987.35;107553;1282;71337;-76
2022/02/02 02:12:44;;;;;;;7.30;1.10;;;;;;;3.32;97.59;99997.13;107533;1282;74019;-78
2022/02/02 02:15:13;;;;;;;8.40;1.00;;;;;;;3.33;97.87;99989.38;107413;1281;61318;-75
2022/02/02 02:17:40;;;;;;;4.00;0.60;;;;;;;3.31;97.67;99989.30;107665;1281;59887;-75
2022/02/02 02:20:07;;;;;;;2.30;0.70;;;;;;;3.29;97.95;99992.58;107477;1282;76464;-76
2022/02/02 02:22:37;;;;;;;6.10;1.20;;;;;;;3.28;98.04;100000.10;107648;1281;72508;-77
2022/02/02 02:25:04;;;;;;;4.20;1.30;;;;;;;3.29;97.94;99993.95;107532;1281;74102;-76
2022/02/02 02:27:31;;;;;;;6.40;1.30;;;;;;;3.31;98.29;99999.83;107471;1282;60160;-75
2022/02/02 02:38:26;;;;;;;10.20;1.70;;;;;;;3.39;99.92;100001.19;107557;1281;74259;-76
2022/02/02 02:56:55;;;;;;;6.50;1.50;;;;;;;3.70;97.27;99974.77;107571;1281;59563;-75
2022/02/02 02:59:34;;;;;;;13.70;3.00;;;;;;;3.76;96.28;99993.11;107393;1282;74926;-76
2022/02/02 03:02:40;;;;;;;15.20;2.60;;;;;;;3.82;95.89;100000.22;107648;1281;73288;-75
2022/02/02 03:29:52;;;;;;;13.20;2.40;;;;;;;4.05;93.71;100009.51;107612;1281;72528;-75
2022/02/02 03:30:19;;;;;;;23.50;1.80;;;;;;;3.93;96.79;100053.15;107605;1281;71151;-75
2022/02/02 03:56:32;;;;;;;13.00;1.70;;;;;;;3.47;100.00;100069.98;107481;1281;71453;-74
2022/02/02 04:04:24;;;;;;;14.30;2.20;;;;;;;3.61;100.00;100070.25;107282;1282;60701;-75
2022/02/02 04:07:06;;;;;;;12.00;1.90;;;;;;;3.62;100.00;100080.09;107479;1282;74928;-75
2022/02/02 04:09:36;;;;;;;12.10;1.90;;;;;;;3.63;100.00;100091.86;107648;1281;71410;-76
2022/02/02 04:15:45;;;;;;;;;;;;;;;3.65;100.00;100086.27;107443;1282;62758;-79
2022/02/02 04:17:50;;;;;;;10.10;2.20;;;;;;;3.62;98.77;100085.52;107643;1281;60363;-75
2022/02/02 04:56:01;;;;;;;7.00;1.70;;;;;;;3.45;95.25;100132.40;107473;1282;61585;-76
2022/02/02 04:59:04;;;;;;;7.90;1.80;;;;;;;3.45;95.62;100131.17;107687;1281;61625;-76
2022/02/02 05:06:42;;;;;;;14.70;2.90;;;;;;;3.54;95.61;100134.13;107498;1282;73403;-76
2022/02/02 05:23:15;;;;;;;9.30;1.90;;;;;;;3.74;94.08;100147.86;107382;1282;61450;-77
2022/02/02 05:52:55;;;;;;;10.90;2.00;;;;;;;3.98;89.67;100199.53;107399;1282;60621;-76
2022/02/02 05:55:22;;;;;;;16.00;2.50;;;;;;;3.98;89.78;100213.14;107500;1282;75949;-79
2022/02/02 05:57:49;;;;;;;13.50;2.20;;;;;;;4.01;89.66;100222.30;107592;1282;72587;-78
2022/02/02 06:00:16;;;;;;;13.70;2.50;;;;;;;4.03;89.44;100215.73;107565;1282;73012;-78
2022/02/02 06:02:46;;;;;;;12.10;3.20;;;;;;;4.08;89.26;100224.14;107742;1281;61297;-78
2022/02/02 06:05:13;;;;;;;12.90;2.70;;;;;;;4.11;89.20;100213.35;107627;1281;61888;-78
2022/02/02 06:07:42;;;;;;;15.20;2.90;;;;;;;4.12;89.31;100225.48;107737;1281;76077;-78
2022/02/02 06:10:14;;;;;;;23.50;2.40;;;;;;;4.13;89.39;100221.70;107521;1282;73055;-78
2022/02/02 06:12:43;;;;;;;21.50;3.20;;;;;;;4.14;89.34;100225.10;107698;1281;73365;-78
2022/02/02 06:15:15;;;;;;;20.90;2.60;;;;;;;4.14;89.68;100219.83;107471;1282;61450;-78
2022/02/02 06:17:46;;;;;;;22.20;2.50;;;;;;;4.15;89.68;100222.78;107719;1281;60599;-77
2022/02/02 06:20:13;;;;;;;17.10;2.80;;;;;;;4.14;89.75;100231.39;107698;1281;75102;-77
2022/02/02 06:22:49;;;;;;;16.70;2.40;;;;;;;4.15;89.64;100245.02;107677;1281;71352;-80
2022/02/02 06:25:33;;;;;;;10.40;2.20;;;;;;;4.16;89.26;100240.71;107491;1282;71972;-77
2022/02/02 06:28:03;;;;;;;20.70;3.10;;;;;;;4.16;89.70;100231.55;107496;1282;61411;-77
2022/02/02 06:30:31;;;;;;;17.60;2.50;;;;;;;4.15;90.12;100234.27;107487;1282;60444;-77
2022/02/02 06:33:11;;;;;;;10.50;2.70;;;;;;;4.16;89.92;100243.00;107663;1281;75963;-77
2022/02/02 06:35:38;;;;;;;11.30;3.20;;;;;;;4.17;89.05;100241.45;107459;1281;72449;-77
2022/02/02 06:38:06;;;;;;;17.00;2.90;;;;;;;4.20;89.02;100252.71;107362;1282;74119;-77
2022/02/02 06:40:34;;;;;;;9.10;3.40;;;;;;;4.19;89.71;100267.33;107198;1282;61383;-77
2022/02/02 06:43:04;;;;;;;10.20;2.30;;;;;;;4.17;90.09;100272.59;107698;1281;61024;-77
2022/02/02 06:45:31;;;;;;;17.10;2.80;;;;;;;4.15;90.14;100262.45;107440;1281;75840;-77
2022/02/02 06:47:59;;;;;;;14.10;1.90;;;;;;;4.15;90.03;100277.91;107675;1281;71438;-76
2022/02/02 06:50:33;;;;;;;14.60;2.50;;;;;;;4.15;90.40;100261.46;107352;1281;72970;-77
2022/02/02 06:53:22;;;;;;;18.50;2.10;;;;;;;4.13;90.50;100270.89;107670;1281;62998;-77
2022/02/02 06:56:29;;;;;;;8.20;2.10;;;;;;;4.15;89.87;100272.13;107479;1281;60839;-76
2022/02/02 07:07:39;;;;;;;20.20;1.80;;;;;;;4.20;90.52;100314.83;107660;1281;61960;-77
2022/02/02 07:10:25;;;;;;;14.40;3.00;;;;;;;4.21;91.22;100327.19;107487;1282;61817;-76
2022/02/02 07:13:13;;;;;;;14.80;2.00;;;;;;;4.19;92.20;100336.31;107551;1281;76035;-80
2022/02/02 07:15:53;;;;;;;15.80;3.10;;;;;;;4.17;92.68;100344.73;107564;1282;72621;-78
2022/02/02 07:21:28;;;;;;;11.20;2.50;;;;;;;4.14;92.36;100355.85;107616;1282;61368;-79
2022/02/02 07:31:52;;;;;;;;;;;;;;;4.15;92.11;100360.80;107563;1283;74668;-79
2022/02/02 07:34:48;;;;;;;11.00;2.30;;;;;;;4.16;92.48;100369.14;107571;1282;60316;-82
2022/02/02 07:37:27;;;;;;;16.10;2.50;;;;;;;4.15;92.55;100384.27;107758;1281;61834;-80
2022/02/02 07:39:57;;;;;;;6.00;1.90;;;;;;;4.16;91.78;100392.47;107372;1284;75673;-78
2022/02/02 07:42:26;;;;;;;10.70;2.70;;;;;;;4.17;91.45;100390.92;107876;1281;73646;-80
2022/02/02 07:44:58;;;;;;;8.00;1.80;;;;;;;4.19;91.04;100401.38;107409;1284;73986;-79
2022/02/02 07:47:26;;;;;;;7.20;2.00;;;;;;;4.24;89.99;100413.04;107795;1282;62185;-80
2022/02/02 07:49:56;;;;;;;9.10;1.50;;;;;;;4.30;89.22;100409.88;107528;1283;60849;-80
2022/02/02 07:52:28;;;;;;;12.40;1.20;;;;;;;4.35;88.70;100417.99;107798;1272;76115;-80
2022/02/02 07:54:57;;;;;;;8.90;3.00;;;;;;;4.38;88.94;100409.80;107828;1279;71569;-80
2022/02/02 07:57:28;;;;;;;12.90;2.80;;;;;;;4.41;87.96;100414.23;107832;1279;74069;-79
2022/02/02 08:00:01;;;;;;;15.70;2.00;;;;;;;4.45;87.14;100429.98;107874;1279;62203;-82
2022/02/02 08:05:00;;;;;;;8.60;1.90;;;;;;;4.51;86.58;100431.58;107764;1281;74954;-80
2022/02/02 08:07:33;;;;;;;7.40;1.70;;;;;;;4.53;86.40;100442.95;107903;1279;72353;-80
2022/02/02 08:10:15;;;;;;;9.30;2.10;;;;;;;4.54;86.46;100442.85;107846;1280;73103;-80
2022/02/02 08:12:46;;;;;;;6.60;2.10;;;;;;;4.52;86.15;100459.12;107843;1271;62290;-80
2022/02/02 08:15:20;;;;;;;6.70;2.40;;;;;;;4.50;86.50;100451.13;107736;1271;60657;-79
2022/02/02 08:17:50;;;;;;;6.30;1.40;;;;;;;4.50;86.40;100467.41;107857;1281;74894;-82
2022/02/02 08:20:19;;;;;;;6.20;1.20;;;;;;;4.50;86.18;100461.75;108035;1271;72526;-80
2022/02/02 08:22:47;;;;;;;12.10;3.60;;;;;;;4.52;86.43;100477.55;107992;1279;72079;-80
2022/02/02 08:25:24;;;;;;;11.00;1.80;;;;;;;4.54;86.64;100475.77;107463;1280;61492;-80
2022/02/02 08:27:53;;;;;;;13.40;2.70;;;;;;;4.55;86.53;100473.43;107970;1279;59789;-79
2022/02/02 08:30:21;;;;;;;15.20;1.80;;;;;;;4.55;86.70;100478.29;107937;1279;75263;-80
2022/02/02 08:32:56;;;;;;;7.40;1.80;;;;;;;4.55;86.87;100490.36;107742;1279;71375;-80
2022/02/02 08:35:26;;;;;;;15.00;3.20;;;;;;;4.57;86.63;100501.28;108013;1279;73953;-79
2022/02/02 08:38:05;;;;;;;14.30;2.40;;;;;;;4.60;86.65;100492.73;107596;1281;62180;-79
2022/02/02 08:41:11;;;;;;;8.50;1.70;;;;;;;4.62;86.48;100497.27;107973;1280;60626;-80
2022/02/02 08:43:54;;;;;;;14.10;3.10;;;;;;;4.64;86.36;100508.17;107848;1280;74824;-80
2022/02/02 08:46:21;;;;;;;11.80;2.50;;;;;;;4.67;85.64;100492.98;108058;1279;71500;-80
2022/02/02 08:48:51;;;;;;;15.60;3.90;;;;;;;4.68;84.84;100505.46;108057;1279;73326;-79
2022/02/02 08:51:20;;;;;;;11.30;2.10;;;;;;;4.73;85.23;100511.89;107924;1279;61127;-80
2022/02/02 08:54:04;;;;;;;13.00;2.70;;;;;;;4.75;84.81;100526.90;107681;1281;61509;-82
2022/02/02 08:56:53;;;;;;;15.00;3.40;;;;;;;4.78;84.20;100532.45;107988;1279;74994;-82
2022/02/02 08:59:23;;;;;;;14.10;1.90;;;;;;;4.80;83.98;100527.68;107736;1281;72404;-79
2022/02/02 09:01:51;;;;;;;16.70;2.10;;;;;;;4.85;84.07;100524.41;107691;1281;72709;-81
2022/02/02 09:07:04;;;;;;;8.80;1.60;;;;;;;4.98;83.33;100525.02;107910;1275;60552;-79
2022/02/02 09:09:48;;;;;;;6.30;1.50;;;;;;;5.02;82.61;100533.04;108087;1279;74844;-79
2022/02/02 09:21:33;;;;;;;4.60;1.20;;;;;;;5.16;80.19;100557.13;107956;1271;62399;-81
2022/02/02 09:36:32;;;;;;;3.10;1.00;;;;;;;5.27;79.37;100575.55;107807;1281;59200;-80
2022/02/02 09:39:07;;;;;;;9.30;1.50;;;;;;;5.29;79.32;100588.02;107765;1281;72576;-80
2022/02/02 09:41:39;;;;;;;10.90;1.40;;;;;;;5.24;78.47;100599.86;107841;1281;73075;-80
2022/02/02 09:44:09;;;;;;;8.90;1.60;;;;;;;5.24;78.93;100592.78;107908;1281;60985;-80
2022/02/02 09:46:47;;;;;;;10.20;2.10;;;;;;;5.27;79.19;100603.02;107823;1281;62063;-80
2022/02/02 09:49:26;;;;;;;5.90;1.70;;;;;;;5.31;78.73;100597.84;107772;1281;76013;-79
2022/02/02 09:52:01;;;;;;;10.70;1.80;;;;;;;5.33;78.66;100604.45;107923;1281;70348;-79
2022/02/02 09:54:35;;;;;;;;;;;;;;;5.35;78.48;100610.09;107665;1282;76618;-78
2022/02/02 10:03:02;;;;;;;7.00;1.40;;;;;;;5.41;77.47;100623.20;107941;1281;74923;-81
2022/02/02 10:05:33;;;;;;;;;;;;;;;5.48;77.95;100620.95;107645;1281;71516;-80
2022/02/02 10:11:52;;;;;;;4.80;1.00;;;;;;;5.58;76.69;100637.87;107685;1271;61421;-82
2022/02/02 10:14:24;;;;;;;10.20;1.90;;;;;;;5.62;75.59;100650.55;107843;1280;59946;-78
2022/02/02 10:16:51;;;;;;;7.20;1.00;;;;;;;5.60;75.99;100640.83;107778;1280;74980;-79
2022/02/02 10:19:20;;;;;;;13.40;1.90;;;;;;;5.65;76.22;100643.52;107777;1280;71529;-78
2022/02/02 10:21:48;;;;;;;7.60;1.60;;;;;;;5.74;75.91;100647.98;107802;1281;73154;-81
2022/02/02 10:24:15;;;;;;;4.10;0.90;;;;;;;5.80;75.20;100658.68;107812;1280;59707;-80
2022/02/02 10:26:45;;;;;;;8.40;1.90;;;;;;;5.85;74.83;100661.54;107851;1281;60575;-79
2022/02/02 10:29:15;;;;;;;2.10;0.70;;;;;;;5.94;73.81;100684.21;107647;1280;76220;-79
2022/02/02 10:31:43;;;;;;;4.30;1.30;;;;;;;6.08;74.02;100665.55;107689;1281;70026;-81
2022/02/02 10:34:12;;;;;;;4.50;1.10;;;;;;;6.13;73.07;100690.54;107782;1280;74940;-80
2022/02/02 10:36:39;;;;;;;6.90;1.30;;;;;;;6.15;72.59;100678.88;107604;1281;61549;-81
2022/02/02 10:39:18;;;;;;;7.20;3.10;;;;;;;6.15;71.89;100682.62;107598;1281;60733;-81
2022/02/02 10:41:58;;;;;;;10.40;2.30;;;;;;;6.17;72.50;100686.59;107777;1281;75103;-79
2022/02/02 10:44:40;;;;;;;10.80;1.40;;;;;;;6.15;71.38;100687.66;107804;1281;72226;-80
2022/02/02 10:47:20;;;;;;;4.20;1.20;;;;;;;6.12;71.41;100686.20;107757;1281;72953;-81
2022/02/02 10:49:57;;;;;;;9.10;1.60;;;;;;;6.05;71.79;100687.02;107757;1281;61064;-80
2022/02/02 10:52:41;;;;;;;7.50;1.10;;;;;;;6.00;72.50;100695.42;107550;1281;63795;-81
2022/02/02 10:55:33;;;;;;;7.10;1.70;;;;;;;5.95;71.09;100725.58;107823;1281;75055;-81
2022/02/02 10:58:29;;;;;;;9.10;1.80;;;;;;;5.95;71.32;100706.42;107646;1282;70207;-79
2022/02/02 11:06:41;;;;;;;9.50;1.40;;;;;;;6.00;71.09;100719.16;107786;1281;60678;-80
2022/02/02 11:09:10;;;;;;;9.90;1.30;;;;;;;5.90;71.50;100730.50;107592;1282;75051;-79
2022/02/02 11:11:52;;;;;;;5.30;1.60;;;;;;;5.88;72.18;100725.63;107788;1281;71627;-81
2022/02/02 11:14:37;;;;;;;5.20;1.40;;;;;;;5.82;72.04;100729.40;107745;1281;73993;-79
2022/02/02 11:17:23;;;;;;;11.30;1.50;;;;;;;5.77;72.23;100743.03;107443;1281;59855;-80
2022/02/02 11:19:53;;;;;;;10.50;1.20;;;;;;;5.74;72.04;100746.91;107793;1281;60675;-80
2022/02/02 11:22:30;;;;;;;8.70;1.40;;;;;;;5.78;72.26;100747.30;107767;1281;75057;-80
2022/02/02 11:25:17;;;;;;;6.00;1.00;;;;;;;5.92;71.72;100761.40;107784;1282;72241;-80
2022/02/02 11:27:49;;;;;;;6.40;1.20;;;;;;;6.13;70.94;100749.16;107338;1282;72918;-80
2022/02/02 11:30:24;;;;;;;9.80;1.40;;;;;;;6.23;70.80;100761.02;107802;1281;59084;-80
2022/02/02 11:33:11;;;;;;;9.70;1.70;;;;;;;6.22;69.36;100775.88;107781;1281;59628;-79
2022/02/02 11:35:46;;;;;;;12.80;3.00;;;;;;;6.31;69.66;100769.19;107667;1281;75055;-79
2022/02/02 11:38:31;;;;;;;7.10;1.50;;;;;;;6.62;69.63;100766.40;107613;1279;72410;-80
2022/02/02 11:44:09;;;;;;;4.60;1.60;;;;;;;7.30;66.67;100772.31;107714;1281;59841;-79
2022/02/02 11:47:07;;;;;;;5.80;2.00;;;;;;;7.48;64.36;100777.38;107546;1282;60322;-80
2022/02/02 11:49:54;;;;;;;7.00;1.50;;;;;;;7.40;64.78;100780.35;107654;1281;75004;-78
2022/02/02 11:52:42;;;;;;;6.70;0.80;;;;;;;7.46;63.84;100777.40;107726;1281;72150;-79
2022/02/02 11:55:11;;;;;;;8.70;1.50;;;;;;;7.64;63.01;100783.41;107708;1279;74189;-80
2022/02/02 11:58:12;;;;;;;5.70;1.00;;;;;;;7.57;63.36;100776.73;107702;1281;61694;-79
2022/02/02 12:00:54;;;;;;;5.00;1.00;;;;;;;7.48;64.28;100774.58;107540;1282;60745;-77
2022/02/02 12:03:42;;;;;;;9.80;1.30;;;;;;;7.36;64.48;100776.96;107816;1280;75447;-80
2022/02/02 12:09:09;;;;;;;9.10;1.30;;;;;;;6.82;69.21;100795.06;107475;1282;73147;-82
2022/02/02 12:19:02;;;;;;;6.50;1.10;;;;;;;6.56;70.52;100792.31;107551;1281;59762;-81
2022/02/02 12:49:03;;;;;;;4.80;1.00;;;;;;;9.26;60.39;100801.91;107742;1281;72462;-80
2022/02/02 12:56:59;;;;;;;5.00;1.00;;;;;;;11.55;50.90;100798.78;107804;1281;61456;-78
2022/02/02 13:02:11;;;;;;;4.00;1.00;;;;;;;12.26;49.01;100802.15;107723;1270;72001;-80
2022/02/02 13:04:39;;;;;;;4.30;1.30;;;;;;;12.35;46.57;100834.77;107786;1281;73925;-78
2022/02/02 13:07:13;;;;;;;8.00;1.40;;;;;;;11.73;47.82;100820.77;107739;1281;61652;-78
2022/02/02 13:09:42;;;;;;;5.20;1.50;;;;;;;10.79;50.28;100823.42;107774;1281;60584;-79
2022/02/02 13:12:35;;;;;;;5.40;1.60;;;;;;;9.93;52.54;100851.27;107777;1281;74995;-80
2022/02/02 13:15:18;;;;;;;3.80;0.70;;;;;;;8.74;55.15;100863.50;107808;1281;72806;-79
2022/02/02 13:23:13;;;;;;;4.20;0.90;;;;;;;7.71;58.63;100852.53;107726;1281;60831;-79
2022/02/02 13:25:44;;;;;;;4.60;0.90;;;;;;;9.20;55.03;100848.61;107853;1280;74946;-80
2022/02/02 13:28:12;;;;;;;3.00;0.60;;;;;;;10.30;50.58;100852.59;107932;1281;71337;-80
2022/02/02 13:30:48;;;;;;;3.60;1.10;;;;;;;11.17;47.76;100837.86;107589;1281;73956;-79
2022/02/02 13:33:31;;;;;;;3.10;0.70;;;;;;;12.07;45.58;100848.79;107927;1281;60639;-80
2022/02/02 13:36:12;;;;;;;3.80;1.10;;;;;;;12.47;43.77;100866.87;107865;1281;60646;-79
2022/02/02 13:39:06;;;;;;;2.50;0.70;;;;;;;12.70;41.98;100850.47;107808;1269;74651;-79
2022/02/02 13:45:07;;;;;;;5.80;0.90;;;;;;;13.21;39.76;100874.36;107600;1282;73111;-79
2022/02/02 13:47:58;;;;;;;4.30;1.10;;;;;;;13.33;39.27;100873.61;107897;1281;59441;-81
2022/02/02 13:59:04;;;;;;;5.80;0.90;;;;;;;12.94;39.14;100903.67;107862;1280;72932;-78
2022/02/02 14:01:43;;;;;;;7.00;1.00;;;;;;;12.15;40.88;100899.02;107832;1281;60693;-80
2022/02/02 14:31:37;;;;;;;3.10;0.70;;;;;;;11.09;47.72;100938.10;107791;1281;60699;-80
2022/02/02 14:34:23;;;;;;;3.40;1.10;;;;;;;12.06;45.85;100944.54;107890;1280;76406;-80
2022/02/02 14:36:51;;;;;;;8.10;1.10;;;;;;;12.50;43.61;100953.73;107888;1280;59133;-80
2022/02/02 14:39:25;;;;;;;3.90;0.80;;;;;;;12.83;42.54;100957.90;107809;1281;73150;-79
2022/02/02 14:41:57;;;;;;;3.10;0.70;;;;;;;12.74;41.96;100966.62;107855;1281;60558;-81
2022/02/02 14:44:32;;;;;;;5.40;0.90;;;;;;;12.56;42.62;100963.75;107903;1281;61053;-79
2022/02/02 14:47:25;;;;;;;7.40;1.30;;;;;;;12.41;42.54;100967.77;107753;1281;78376;-78
2022/02/02 15:27:35;;;;;;;8.20;1.10;;;;;;;5.90;70.12;101054.19;107838;1281;76250;-78
2022/02/02 15:32:49;;;;;;;6.50;1.00;;;;;;;5.41;71.95;101058.85;107823;1281;72992;-78
2022/02/02 15:35:16;;;;;;;7.50;1.30;;;;;;;5.23;72.53;101062.50;107821;1281;60147;-78
2022/02/02 15:37:56;;;;;;;5.50;1.00;;;;;;;5.06;73.01;101065.69;107838;1280;60439;-77
2022/02/02 15:40:38;;;;;;;7.50;1.00;;;;;;;4.90;73.94;101072.83;107679;1281;76256;-78
2022/02/02 15:43:22;;;;;;;5.90;1.20;;;;;;;4.75;74.34;101074.05;107843;1281;71349;-79
2022/02/02 16:05:14;;;;;;;8.60;0.70;;;;;;;4.29;76.86;101138.73;107497;1282;60680;-80
2022/02/02 16:07:40;;;;;;;2.10;1.00;;;;;;;4.27;77.04;101144.65;107875;1281;76031;-80
2022/02/02 16:10:15;;;;;;;5.10;1.40;;;;;;;4.27;77.12;101146.27;107628;1282;71624;-80
2022/02/02 16:12:44;;;;;;;6.80;1.60;;;;;;;4.26;77.31;101143.15;107897;1282;73975;-79
2022/02/02 16:34:35;;;;;;;9.50;1.70;;;;;;;3.96;78.81;101155.54;107876;1281;73871;-80
2022/02/02 16:36:40;;;;;;;;;;;;;;;3.90;79.50;101158.35;107752;1282;72914;-80
2022/02/02 16:39:22;;;;;;;10.60;2.80;;;;;;;3.84;79.58;101160.48;107823;1282;73973;-81
2022/02/02 16:44:34;;;;;;;8.70;2.20;;;;;;;3.74;80.27;101161.48;107777;1282;61666;-80
2022/02/02 16:47:00;;;;;;;10.00;1.80;;;;;;;3.69;80.52;101162.90;107618;1282;74991;-80
2022/02/02 16:49:27;;;;;;;8.10;1.30;;;;;;;3.64;80.81;101170.21;107733;1281;72398;-77
2022/02/02 16:51:54;;;;;;;6.10;1.70;;;;;;;3.61;80.83;101172.58;107715;1282;73089;-76
2022/02/02 16:54:38;;;;;;;8.10;1.40;;;;;;;3.56;81.30;101174.40;107510;1282;61460;-76
2022/02/02 17:32:44;;;;;;;18.90;2.50;;;;;;;2.84;83.77;101234.06;107683;1282;72251;-76
2022/02/02 17:35:24;;;;;;;7.40;1.80;;;;;;;2.81;83.80;101236.89;107661;1282;60996;-76
2022/02/02 17:38:14;;;;;;;12.30;2.60;;;;;;;2.80;83.75;101239.45;107536;1282;60824;-76
2022/02/02 17:41:00;;;;;;;10.90;2.70;;;;;;;2.78;83.62;101238.04;107701;1282;76077;-76
2022/02/02 18:19:10;;;;;;;16.60;3.40;;;;;;;2.08;87.04;101281.38;107756;1282;62234;-76
2022/02/02 18:21:37;;;;;;;6.50;2.50;;;;;;;2.02;87.42;101281.76;107696;1282;75980;-76
2022/02/02 18:24:14;;;;;;;9.20;2.10;;;;;;;1.97;87.92;101283.66;107593;1282;71436;-76
2022/02/02 18:26:48;;;;;;;15.70;2.90;;;;;;;1.93;88.40;101285.70;107551;1283;73153;-76
2022/02/02 18:29:41;;;;;;;9.20;3.20;;;;;;;1.89;88.99;101287.36;107411;1282;61484;-77
2022/02/02 18:32:21;;;;;;;9.90;3.00;;;;;;;1.85;89.08;101287.28;107617;1281;59710;-77
2022/02/02 18:34:54;;;;;;;10.90;2.80;;;;;;;1.82;89.27;101290.09;107688;1282;74714;-77
2022/02/02 18:48:42;;;;;;;9.80;3.10;;;;;;;1.70;90.59;101299.63;107641;1281;75864;-76
2022/02/02 18:51:32;;;;;;;10.20;2.90;;;;;;;1.67;90.80;101302.96;107430;1282;72424;-76
2022/02/02 18:54:07;;;;;;;18.30;3.80;;;;;;;1.65;90.93;101301.71;107582;1282;73073;-76
2022/02/02 18:56:49;;;;;;;10.40;4.00;;;;;;;1.64;91.21;101300.91;107588;1282;62527;-76
2022/02/02 19:00:12;;;;;;;29.30;5.30;;;;;;;1.63;91.37;101302.88;107555;1281;60682;-76
2022/02/02 19:02:19;;;;;;;28.40;6.30;;;;;;;1.63;91.53;101296.74;107484;1281;76251;-76
2022/02/02 19:05:07;;;;;;;24.20;6.90;;;;;;;1.65;91.74;101301.38;107561;1283;69100;-76
2022/02/02 19:40:22;;;;;;;13.60;3.90;;;;;;;2.14;93.05;101293.14;107324;1282;60742;-76
2022/02/02 19:56:26;;;;;;;22.50;4.00;;;;;;;2.12;92.73;101293.29;107426;1282;73697;-76
2022/02/02 20:02:14;;;;;;;16.50;3.80;;;;;;;2.06;92.68;101295.64;106922;1287;73993;-77
2022/02/02 20:07:45;;;;;;;14.20;3.90;;;;;;;1.98;92.74;101297.05;107454;1282;60747;-77
2022/02/02 20:10:29;;;;;;;7.60;2.60;;;;;;;1.95;92.98;101304.59;107432;1282;76099;-76
2022/02/02 20:12:56;;;;;;;16.60;4.30;;;;;;;1.92;93.25;101299.75;107479;1282;72109;-76
2022/02/02 20:15:22;;;;;;;15.80;3.10;;;;;;;1.89;93.14;101299.23;107441;1282;72876;-76
2022/02/02 20:17:51;;;;;;;16.70;3.40;;;;;;;1.88;93.27;101298.44;107439;1282;63831;-76
2022/02/02 20:20:21;;;;;;;10.90;3.30;;;;;;;1.87;93.05;101298.16;107468;1282;61826;-77
2022/02/02 20:22:48;;;;;;;18.20;3.70;;;;;;;1.85;93.12;101298.41;107161;1282;75459;-77
2022/02/02 20:25:16;;;;;;;13.20;4.00;;;;;;;1.84;93.00;101299.52;107462;1282;71736;-77
2022/02/02 20:27:52;;;;;;;13.90;3.70;;;;;;;1.81;92.70;101299.41;107195;1284;73488;-77
2022/02/02 20:30:20;;;;;;;11.40;3.10;;;;;;;1.77;92.82;101302.61;107456;1282;62561;-77
2022/02/02 20:32:48;;;;;;;11.60;2.90;;;;;;;1.73;92.88;101303.98;107424;1282;61793;-77
2022/02/02 20:35:14;;;;;;;12.80;3.40;;;;;;;1.68;92.82;101304.31;107408;1282;76057;-77
2022/02/02 20:37:41;;;;;;;14.70;4.20;;;;;;;1.64;93.11;101303.17;107436;1282;59321;-75
2022/02/02 20:40:08;;;;;;;13.70;3.10;;;;;;;1.59;93.21;101308.20;107298;1283;72770;-76
2022/02/02 20:43:13;;;;;;;19.40;3.00;;;;;;;1.54;93.24;101309.57;107428;1282;62406;-76
2022/02/02 20:45:56;;;;;;;17.40;2.90;;;;;;;1.49;93.19;101315.67;107409;1282;59620;-77
2022/02/02 21:07:33;;;;;;;12.80;3.40;;;;;;;1.34;94.19;101323.29;107431;1281;59253;-77
2022/02/02 21:10:04;;;;;;;13.40;3.00;;;;;;;1.32;94.40;101326.55;107434;1282;62686;-77
2022/02/02 21:15:23;;;;;;;10.60;2.50;;;;;;;1.29;94.51;101327.93;107382;1282;76244;-76
2022/02/02 21:17:53;;;;;;;12.40;2.70;;;;;;;1.28;94.52;101328.00;107352;1282;71400;-76
2022/02/02 21:23:30;;;;;;;19.20;3.10;;;;;;;1.27;94.65;101338.37;107442;1281;61493;-76
2022/02/02 21:26:11;;;;;;;12.10;2.40;;;;;;;1.27;94.44;101336.29;107432;1282;60364;-76
2022/02/02 21:28:37;;;;;;;10.30;2.30;;;;;;;1.25;94.39;101337.27;107464;1281;74330;-76
2022/02/02 21:31:04;;;;;;;6.90;2.20;;;;;;;1.22;94.11;101337.77;107443;1281;71479;-76
2022/02/02 21:33:34;;;;;;;8.00;2.40;;;;;;;1.20;94.25;101342.41;107394;1281;73457;-76
2022/02/02 21:36:00;;;;;;;14.20;3.20;;;;;;;1.18;94.16;101345.66;107387;1281;61454;-76
2022/02/02 21:39:20;;;;;;;11.90;3.80;;;;;;;1.15;94.11;101343.95;107426;1282;60547;-76
2022/02/02 21:41:32;;;;;;;12.70;4.40;;;;;;;1.12;94.09;101344.69;107345;1282;75126;-76
2022/02/02 21:43:58;;;;;;;14.80;4.00;;;;;;;1.08;94.06;101342.16;107421;1281;71552;-77